createdAt,value
2019-03-25T00:00:32.163Z,7.50
2019-03-25T00:02:37.751Z,7.40
2019-03-25T00:04:43.276Z,7.50
2019-03-25T00:06:48.822Z,7.50
2019-03-25T00:09:04.838Z,7.40
2019-03-25T00:11:04.277Z,7.40
2019-03-25T00:13:09.792Z,7.30
2019-03-25T00:15:16.531Z,7.40
2019-03-25T00:17:22.176Z,7.30
2019-03-25T00:19:27.693Z,7.40
2019-03-25T00:21:33.285Z,7.40
2019-03-25T00:23:38.904Z,7.30
2019-03-25T00:25:45.304Z,7.40
2019-03-25T00:27:50.814Z,7.30
2019-03-25T00:29:56.331Z,7.30
2019-03-25T00:32:01.856Z,7.30
2019-03-25T00:34:07.380Z,7.40
2019-03-25T00:36:12.928Z,7.40
2019-03-25T00:38:18.436Z,7.30
2019-03-25T00:40:23.949Z,7.30
2019-03-25T00:42:29.477Z,7.30
2019-03-25T00:44:34.984Z,7.30
2019-03-25T00:46:40.505Z,7.30
2019-03-25T00:48:46.033Z,7.40
2019-03-25T00:50:51.820Z,7.40
2019-03-25T00:52:57.401Z,7.30
2019-03-25T00:55:02.943Z,7.30
2019-03-25T00:57:08.455Z,7.30
2019-03-25T00:59:13.972Z,7.30
2019-03-25T01:01:19.595Z,7.30
2019-03-25T01:03:25.101Z,7.30
2019-03-25T01:05:30.755Z,7.30
2019-03-25T01:07:36.348Z,7.30
2019-03-25T01:09:53.989Z,7.30
2019-03-25T01:11:59.569Z,7.30
2019-03-25T01:14:05.093Z,7.30
2019-03-25T01:16:10.675Z,7.20
2019-03-25T01:18:17.287Z,7.30
2019-03-25T01:20:23.080Z,7.20
2019-03-25T01:22:28.672Z,7.20
2019-03-25T01:24:35.256Z,7.10
2019-03-25T01:26:40.812Z,7.20
2019-03-25T01:28:46.336Z,7.10
2019-03-25T01:30:51.840Z,7.10
2019-03-25T01:32:57.386Z,7.10
2019-03-25T01:35:02.969Z,7.10
2019-03-25T01:37:08.488Z,7.00
2019-03-25T01:39:14.045Z,7.10
2019-03-25T01:41:19.567Z,7.10
2019-03-25T01:43:25.082Z,7.10
2019-03-25T01:45:30.643Z,7.00
2019-03-25T01:47:36.164Z,7.00
2019-03-25T01:49:41.690Z,7.10
2019-03-25T01:51:47.293Z,7.10
2019-03-25T01:53:52.808Z,7.00
2019-03-25T01:55:58.330Z,6.90
2019-03-25T01:58:03.852Z,7.00
2019-03-25T02:00:10.148Z,7.00
2019-03-25T02:02:15.738Z,7.00
2019-03-25T02:04:21.248Z,7.00
2019-03-25T02:06:26.777Z,7.00
2019-03-25T02:08:32.306Z,7.00
2019-03-25T02:10:37.820Z,7.10
2019-03-25T02:12:43.366Z,7.10
2019-03-25T02:14:48.940Z,7.10
2019-03-25T02:16:54.456Z,7.10
2019-03-25T02:18:59.992Z,7.10
2019-03-25T02:21:05.745Z,7.00
2019-03-25T02:23:11.317Z,7.00
2019-03-25T02:25:25.428Z,6.90
2019-03-25T02:27:24.020Z,7.00
2019-03-25T02:29:29.536Z,6.90
2019-03-25T02:31:35.060Z,6.90
2019-03-25T02:33:40.575Z,6.90
2019-03-25T02:35:46.160Z,6.90
2019-03-25T02:37:51.687Z,6.90
2019-03-25T02:39:57.195Z,6.80
2019-03-25T02:42:02.727Z,6.80
2019-03-25T02:44:08.241Z,6.80
2019-03-25T02:46:13.766Z,6.80
2019-03-25T02:48:19.288Z,6.90
2019-03-25T02:50:24.810Z,6.90
2019-03-25T02:52:30.325Z,7.00
2019-03-25T02:54:35.844Z,6.90
2019-03-25T02:56:41.376Z,7.00
2019-03-25T02:58:46.888Z,7.00
2019-03-25T03:00:52.404Z,7.00
2019-03-25T03:02:57.949Z,7.00
2019-03-25T03:05:03.985Z,6.90
2019-03-25T03:07:09.503Z,6.90
2019-03-25T03:09:15.053Z,6.90
2019-03-25T03:11:20.562Z,6.90
2019-03-25T03:13:26.079Z,6.80
2019-03-25T03:15:31.606Z,6.80
2019-03-25T03:17:37.108Z,6.80
2019-03-25T03:19:42.653Z,6.80
2019-03-25T03:21:48.160Z,6.80
2019-03-25T03:23:53.682Z,6.80
2019-03-25T03:25:59.217Z,6.90
2019-03-25T03:28:04.866Z,6.90
2019-03-25T03:30:10.629Z,6.90
2019-03-25T03:32:16.178Z,6.90
2019-03-25T03:34:21.678Z,6.90
2019-03-25T03:36:27.206Z,6.90
2019-03-25T03:38:32.730Z,6.90
2019-03-25T03:40:38.334Z,6.90
2019-03-25T03:42:44.118Z,6.90
2019-03-25T03:44:49.648Z,6.90
2019-03-25T03:46:55.165Z,6.80
2019-03-25T03:49:00.681Z,6.90
2019-03-25T03:51:07.260Z,6.90
2019-03-25T03:53:12.885Z,7.00
2019-03-25T03:55:18.387Z,7.10
2019-03-25T03:57:24.364Z,7.30
2019-03-25T03:59:29.989Z,7.40
2019-03-25T04:01:35.479Z,7.30
2019-03-25T04:03:40.993Z,7.30
2019-03-25T04:05:46.515Z,7.50
2019-03-25T04:07:52.104Z,7.50
2019-03-25T04:09:57.621Z,7.60
2019-03-25T04:12:03.505Z,7.60
2019-03-25T04:14:09.023Z,7.60
2019-03-25T04:16:14.607Z,7.60
2019-03-25T04:18:20.206Z,7.60
2019-03-25T04:20:25.783Z,7.70
2019-03-25T04:22:31.298Z,7.80
2019-03-25T04:24:36.837Z,7.70
2019-03-25T04:26:42.348Z,7.70
2019-03-25T04:28:47.868Z,7.80
2019-03-25T04:30:53.389Z,7.60
2019-03-25T04:32:58.929Z,7.50
2019-03-25T04:35:05.170Z,7.60
2019-03-25T04:37:10.697Z,7.60
2019-03-25T04:39:16.219Z,7.50
2019-03-25T04:41:22.300Z,7.40
2019-03-25T04:43:27.854Z,7.30
2019-03-25T04:45:33.361Z,7.10
2019-03-25T04:47:38.885Z,7.00
2019-03-25T04:49:44.440Z,7.00
2019-03-25T04:51:49.969Z,7.00
2019-03-25T04:53:55.485Z,7.00
2019-03-25T04:56:01.014Z,7.00
2019-03-25T04:58:06.526Z,7.00
2019-03-25T05:00:12.685Z,6.90
2019-03-25T05:02:19.428Z,6.90
2019-03-25T05:04:25.787Z,6.80
2019-03-25T05:06:31.297Z,6.90
2019-03-25T05:08:36.816Z,6.90
2019-03-25T05:10:42.364Z,6.90
2019-03-25T05:12:47.891Z,6.80
2019-03-25T05:14:53.416Z,6.80
2019-03-25T05:16:58.947Z,6.80
2019-03-25T05:19:04.449Z,6.80
2019-03-25T05:21:09.998Z,6.80
2019-03-25T05:23:15.516Z,6.80
2019-03-25T05:25:21.030Z,6.80
2019-03-25T05:27:26.552Z,6.70
2019-03-25T05:29:32.080Z,6.70
2019-03-25T05:31:37.572Z,6.70
2019-03-25T05:33:43.121Z,6.70
2019-03-25T05:35:51.303Z,6.60
2019-03-25T05:37:56.811Z,6.60
2019-03-25T05:40:02.441Z,6.60
2019-03-25T05:42:09.033Z,6.60
2019-03-25T05:44:14.544Z,6.70
2019-03-25T05:46:20.088Z,6.70
2019-03-25T05:48:25.601Z,6.70
2019-03-25T05:50:31.137Z,6.70
2019-03-25T05:52:36.670Z,6.80
2019-03-25T05:54:42.181Z,6.80
2019-03-25T05:56:47.700Z,6.80
2019-03-25T05:58:53.254Z,6.80
2019-03-25T06:00:58.838Z,6.80
2019-03-25T06:03:04.429Z,6.80
2019-03-25T06:05:10.186Z,6.80
2019-03-25T06:07:15.703Z,6.80
2019-03-25T06:09:21.219Z,6.80
2019-03-25T06:11:26.772Z,6.90
2019-03-25T06:13:32.309Z,6.90
2019-03-25T06:15:37.884Z,7.00
2019-03-25T06:17:43.492Z,7.20
2019-03-25T06:19:49.081Z,7.30
2019-03-25T06:21:54.604Z,7.40
2019-03-25T06:24:01.199Z,7.50
2019-03-25T06:26:06.709Z,7.60
2019-03-25T06:28:12.228Z,7.50
2019-03-25T06:30:18.502Z,7.40
2019-03-25T06:32:24.020Z,7.30
2019-03-25T06:34:29.586Z,7.30
2019-03-25T06:36:35.116Z,7.40
2019-03-25T06:38:40.643Z,7.50
2019-03-25T06:40:46.166Z,7.50
2019-03-25T06:42:51.683Z,7.60
2019-03-25T06:44:57.276Z,7.90
2019-03-25T06:47:02.788Z,7.90
2019-03-25T06:49:08.316Z,8.00
2019-03-25T06:51:14.905Z,8.00
2019-03-25T06:53:20.421Z,8.10
2019-03-25T06:55:26.006Z,8.10
2019-03-25T06:57:31.512Z,8.30
2019-03-25T06:59:37.032Z,8.20
2019-03-25T07:01:42.596Z,8.20
2019-03-25T07:03:48.110Z,8.00
2019-03-25T07:05:53.622Z,8.20
2019-03-25T07:07:59.160Z,8.80
2019-03-25T07:10:06.424Z,9.40
2019-03-25T07:12:13.008Z,10.00
2019-03-25T07:14:18.896Z,10.60
2019-03-25T07:16:24.409Z,10.40
2019-03-25T07:18:29.942Z,10.90
2019-03-25T07:20:35.493Z,11.50
2019-03-25T07:22:41.015Z,12.10
2019-03-25T07:24:47.600Z,12.50
2019-03-25T07:26:55.507Z,12.70
2019-03-25T07:29:00.274Z,12.50
2019-03-25T07:31:05.796Z,12.20
2019-03-25T07:33:11.356Z,11.90
2019-03-25T07:35:16.960Z,12.20
2019-03-25T07:37:23.668Z,12.80
2019-03-25T07:39:29.463Z,13.10
2019-03-25T07:41:34.992Z,13.40
2019-03-25T07:43:40.512Z,13.60
2019-03-25T07:45:46.051Z,14.00
2019-03-25T07:47:51.578Z,14.60
2019-03-25T07:49:57.097Z,14.80
2019-03-25T07:52:02.623Z,13.90
2019-03-25T07:54:08.156Z,14.60
2019-03-25T07:56:13.680Z,14.10
2019-03-25T07:58:19.214Z,12.80
2019-03-25T08:00:24.922Z,12.00
2019-03-25T08:02:30.436Z,11.50
2019-03-25T08:04:35.988Z,11.70
2019-03-25T08:06:41.517Z,12.10
2019-03-25T08:08:47.124Z,12.60
2019-03-25T08:10:52.649Z,12.40
2019-03-25T08:12:58.555Z,12.00
2019-03-25T08:15:06.314Z,11.80
2019-03-25T08:17:11.946Z,11.40
2019-03-25T08:19:17.539Z,11.10
2019-03-25T08:21:24.992Z,10.80
2019-03-25T08:23:30.244Z,10.70
2019-03-25T08:25:35.784Z,10.90
2019-03-25T08:27:41.359Z,10.70
2019-03-25T08:29:46.909Z,10.60
2019-03-25T08:31:53.497Z,10.30
2019-03-25T08:33:59.028Z,10.20
2019-03-25T08:36:04.769Z,10.10
2019-03-25T08:38:10.279Z,9.80
2019-03-25T08:40:15.960Z,9.70
2019-03-25T08:42:21.484Z,9.70
2019-03-25T08:44:27.002Z,9.70
2019-03-25T08:46:33.593Z,10.00
2019-03-25T08:48:39.125Z,9.80
2019-03-25T08:50:44.645Z,9.70
2019-03-25T08:52:50.162Z,9.70
2019-03-25T08:54:55.688Z,9.70
2019-03-25T08:57:01.202Z,9.60
2019-03-25T08:59:06.724Z,9.50
2019-03-25T09:01:12.336Z,9.60
2019-03-25T09:03:19.840Z,9.60
2019-03-25T09:05:24.989Z,9.60
2019-03-25T09:07:30.516Z,9.70
2019-03-25T09:09:36.032Z,9.50
2019-03-25T09:11:41.564Z,9.40
2019-03-25T09:13:47.139Z,9.40
2019-03-25T09:15:55.357Z,9.60
2019-03-25T09:18:04.768Z,9.50
2019-03-25T09:20:11.258Z,9.60
2019-03-25T09:22:16.918Z,9.80
2019-03-25T09:24:22.543Z,10.10
2019-03-25T09:26:28.077Z,10.40
2019-03-25T09:28:33.609Z,10.40
2019-03-25T09:30:54.278Z,10.40
2019-03-25T09:32:59.824Z,10.40
2019-03-25T09:35:09.704Z,10.60
2019-03-25T09:37:15.326Z,10.70
2019-03-25T09:39:20.852Z,10.90
2019-03-25T09:41:27.768Z,10.90
2019-03-25T09:43:33.284Z,10.90
2019-03-25T09:45:38.865Z,10.80
2019-03-25T09:47:44.391Z,10.70
2019-03-25T09:49:49.928Z,10.90
2019-03-25T09:51:55.456Z,10.80
2019-03-25T09:54:00.985Z,10.70
2019-03-25T09:56:06.766Z,10.60
2019-03-25T09:58:12.360Z,10.40
2019-03-25T10:00:20.971Z,9.90
2019-03-25T10:02:26.494Z,9.80
2019-03-25T10:04:32.085Z,9.90
2019-03-25T10:06:49.898Z,10.20
2019-03-25T10:08:55.416Z,10.50
2019-03-25T10:11:00.960Z,10.40
2019-03-25T10:13:06.490Z,10.30
2019-03-25T10:15:12.449Z,10.20
2019-03-25T10:17:17.992Z,10.10
2019-03-25T10:19:23.505Z,10.10
2019-03-25T10:21:29.034Z,10.10
2019-03-25T10:23:34.633Z,9.90
2019-03-25T10:25:41.211Z,9.80
2019-03-25T10:27:46.744Z,9.70
2019-03-25T10:29:52.292Z,9.50
2019-03-25T10:31:57.812Z,9.40
2019-03-25T10:34:03.341Z,9.30
2019-03-25T10:36:08.905Z,9.30
2019-03-25T10:38:19.493Z,9.00
2019-03-25T10:40:21.563Z,8.90
2019-03-25T10:42:27.116Z,8.70
2019-03-25T10:44:32.632Z,8.50
2019-03-25T10:46:38.159Z,8.40
2019-03-25T10:48:43.696Z,8.30
2019-03-25T10:50:49.224Z,8.10
2019-03-25T10:52:54.762Z,8.10
2019-03-25T10:55:00.343Z,8.20
2019-03-25T10:57:06.372Z,8.50
2019-03-25T10:59:11.888Z,9.00
2019-03-25T11:01:17.433Z,9.70
2019-03-25T11:03:22.952Z,10.30
2019-03-25T11:05:28.484Z,10.80
2019-03-25T11:07:34.094Z,11.20
2019-03-25T11:09:39.740Z,11.10
2019-03-25T11:11:45.341Z,11.30
2019-03-25T11:13:50.864Z,11.60
2019-03-25T11:15:56.475Z,11.90
2019-03-25T11:18:02.079Z,12.20
2019-03-25T11:20:08.795Z,12.50
2019-03-25T11:22:14.342Z,12.70
2019-03-25T11:24:19.863Z,12.40
2019-03-25T11:26:25.376Z,12.60
2019-03-25T11:28:30.909Z,12.70
2019-03-25T11:30:51.590Z,12.60
2019-03-25T11:32:57.109Z,12.50
2019-03-25T11:35:02.713Z,12.20
2019-03-25T11:37:08.243Z,12.10
2019-03-25T11:39:13.895Z,11.70
2019-03-25T11:41:19.428Z,12.00
2019-03-25T11:43:25.013Z,11.90
2019-03-25T11:45:30.536Z,11.40
2019-03-25T11:47:36.159Z,11.20
2019-03-25T11:49:41.676Z,11.40
2019-03-25T11:51:48.795Z,12.00
2019-03-25T11:53:54.834Z,12.30
2019-03-25T11:56:00.352Z,12.50
2019-03-25T11:58:05.943Z,12.70
2019-03-25T12:00:12.081Z,12.50
2019-03-25T12:02:18.026Z,12.40
2019-03-25T12:04:23.616Z,11.50
2019-03-25T12:06:29.182Z,10.60
2019-03-25T12:08:46.755Z,10.10
2019-03-25T12:10:52.340Z,9.80
2019-03-25T12:12:57.861Z,9.30
2019-03-25T12:15:04.642Z,9.00
2019-03-25T12:17:10.153Z,8.90
2019-03-25T12:19:15.685Z,8.80
2019-03-25T12:21:21.202Z,8.70
2019-03-25T12:23:26.820Z,8.50
2019-03-25T12:25:32.344Z,8.50
2019-03-25T12:27:37.865Z,8.50
2019-03-25T12:29:43.402Z,8.60
2019-03-25T12:31:48.951Z,8.60
2019-03-25T12:33:54.493Z,8.90
2019-03-25T12:36:00.005Z,8.90
2019-03-25T12:38:05.603Z,9.20
2019-03-25T12:40:11.264Z,9.30
2019-03-25T12:42:16.790Z,9.30
2019-03-25T12:44:22.315Z,9.50
2019-03-25T12:46:27.907Z,9.60
2019-03-25T12:48:33.424Z,9.80
2019-03-25T12:50:38.973Z,10.30
2019-03-25T12:52:44.483Z,10.60
2019-03-25T12:54:50.011Z,11.00
2019-03-25T12:56:55.564Z,11.20
2019-03-25T12:59:01.089Z,11.40
2019-03-25T13:01:06.677Z,11.30
2019-03-25T13:03:12.363Z,11.20
2019-03-25T13:05:17.879Z,11.20
2019-03-25T13:07:23.479Z,10.90
2019-03-25T13:09:29.017Z,10.80
2019-03-25T13:11:34.568Z,10.70
2019-03-25T13:13:40.100Z,10.80
2019-03-25T13:15:45.621Z,10.70
2019-03-25T13:17:51.184Z,10.40
2019-03-25T13:19:56.706Z,10.50
2019-03-25T13:22:02.232Z,10.60
2019-03-25T13:24:07.768Z,10.70
2019-03-25T13:26:13.280Z,10.90
2019-03-25T13:28:18.799Z,11.00
2019-03-25T13:30:24.404Z,10.90
2019-03-25T13:32:29.926Z,10.80
2019-03-25T13:34:35.452Z,10.70
2019-03-25T13:36:41.024Z,10.70
2019-03-25T13:38:46.532Z,10.70
2019-03-25T13:40:52.056Z,10.80
2019-03-25T13:42:57.764Z,10.60
2019-03-25T13:45:03.444Z,10.50
2019-03-25T13:47:08.971Z,10.40
2019-03-25T13:49:14.500Z,10.30
2019-03-25T13:51:20.003Z,10.10
2019-03-25T13:53:25.532Z,10.00
2019-03-25T13:55:31.080Z,10.00
2019-03-25T13:57:36.605Z,10.10
2019-03-25T13:59:42.112Z,10.10
2019-03-25T14:01:47.640Z,10.30
2019-03-25T14:03:53.406Z,10.50
2019-03-25T14:05:58.926Z,10.60
2019-03-25T14:08:04.578Z,10.60
2019-03-25T14:10:11.381Z,10.60
2019-03-25T14:12:16.894Z,10.30
2019-03-25T14:14:22.417Z,10.20
2019-03-25T14:16:27.946Z,10.20
2019-03-25T14:18:33.492Z,10.30
2019-03-25T14:20:39.044Z,10.20
2019-03-25T14:22:44.591Z,10.10
2019-03-25T14:24:50.116Z,10.00
2019-03-25T14:26:55.647Z,9.80
2019-03-25T14:29:01.165Z,10.00
2019-03-25T14:31:06.683Z,9.90
2019-03-25T14:33:12.235Z,9.60
2019-03-25T14:35:17.743Z,9.20
2019-03-25T14:37:23.267Z,8.80
2019-03-25T14:39:28.799Z,8.70
2019-03-25T14:41:34.302Z,8.40
2019-03-25T14:43:39.813Z,8.10
2019-03-25T14:45:46.443Z,7.70
2019-03-25T14:47:53.031Z,7.40
2019-03-25T14:49:58.548Z,7.20
2019-03-25T14:52:04.144Z,7.10
2019-03-25T14:54:09.650Z,7.00
2019-03-25T14:56:15.169Z,6.90
2019-03-25T14:58:20.687Z,6.80
2019-03-25T15:00:26.203Z,6.60
2019-03-25T15:02:31.719Z,6.70
2019-03-25T15:04:37.238Z,6.60
2019-03-25T15:06:42.818Z,6.50
2019-03-25T15:08:48.406Z,6.40
2019-03-25T15:10:54.016Z,6.40
2019-03-25T15:12:59.642Z,6.20
2019-03-25T15:15:09.344Z,6.30
2019-03-25T15:17:14.860Z,6.20
2019-03-25T15:19:20.391Z,6.10
2019-03-25T15:21:25.923Z,6.20
2019-03-25T15:23:31.444Z,6.10
2019-03-25T15:25:36.986Z,5.90
2019-03-25T15:27:42.569Z,5.80
2019-03-25T15:29:49.596Z,5.70
2019-03-25T15:31:55.145Z,5.70
2019-03-25T15:34:00.674Z,5.70
2019-03-25T15:36:06.244Z,5.80
2019-03-25T15:38:11.772Z,5.80
2019-03-25T15:40:17.774Z,5.80
2019-03-25T15:42:23.248Z,5.80
2019-03-25T15:44:28.767Z,5.90
2019-03-25T15:46:34.267Z,5.90
2019-03-25T15:48:39.921Z,5.90
2019-03-25T15:50:45.559Z,5.90
2019-03-25T15:52:51.080Z,5.90
2019-03-25T15:54:56.591Z,6.00
2019-03-25T15:57:02.142Z,6.10
2019-03-25T15:59:07.657Z,6.10
2019-03-25T16:01:13.173Z,6.00
2019-03-25T16:03:18.713Z,6.20
2019-03-25T16:05:24.358Z,6.20
2019-03-25T16:07:29.898Z,6.20
2019-03-25T16:09:35.448Z,6.10
2019-03-25T16:11:41.310Z,6.00
2019-03-25T16:13:46.822Z,6.00
2019-03-25T16:15:52.341Z,5.90
2019-03-25T16:17:57.853Z,5.90
2019-03-25T16:20:05.608Z,5.80
2019-03-25T16:22:11.152Z,5.80
2019-03-25T16:24:17.728Z,5.80
2019-03-25T16:26:23.324Z,5.80
2019-03-25T16:28:28.852Z,5.80
2019-03-25T16:30:34.370Z,5.80
2019-03-25T16:32:39.886Z,5.70
2019-03-25T16:34:45.441Z,5.80
2019-03-25T16:36:51.033Z,5.70
2019-03-25T16:38:56.561Z,5.70
2019-03-25T16:41:02.095Z,5.60
2019-03-25T16:43:07.669Z,5.60
2019-03-25T16:45:13.324Z,5.60
2019-03-25T16:47:18.844Z,5.50
2019-03-25T16:49:24.355Z,5.50
2019-03-25T16:51:29.872Z,5.50
2019-03-25T16:53:35.399Z,5.50
2019-03-25T16:55:40.921Z,5.50
2019-03-25T16:57:46.451Z,5.60
2019-03-25T16:59:51.995Z,5.50
2019-03-25T17:01:57.508Z,5.50
2019-03-25T17:04:03.027Z,5.50
2019-03-25T17:06:08.633Z,5.50
2019-03-25T17:08:15.225Z,5.50
2019-03-25T17:10:21.809Z,5.50
2019-03-25T17:12:27.351Z,5.50
2019-03-25T17:14:32.877Z,5.50
2019-03-25T17:16:38.423Z,5.50
2019-03-25T17:18:43.936Z,5.50
2019-03-25T17:20:49.458Z,5.40
2019-03-25T17:22:54.980Z,5.40
2019-03-25T17:25:00.493Z,5.40
2019-03-25T17:27:06.005Z,5.30
2019-03-25T17:29:11.534Z,5.20
2019-03-25T17:31:21.171Z,5.10
2019-03-25T17:33:24.196Z,5.10
2019-03-25T17:35:30.817Z,5.10
2019-03-25T17:37:36.336Z,5.00
2019-03-25T17:39:41.852Z,5.00
2019-03-25T17:41:47.419Z,5.00
2019-03-25T17:43:52.916Z,5.00
2019-03-25T17:45:58.431Z,5.00
2019-03-25T17:48:04.069Z,5.10
2019-03-25T17:50:10.368Z,5.00
2019-03-25T17:52:15.876Z,5.00
2019-03-25T17:54:21.435Z,4.90
2019-03-25T17:56:26.941Z,4.90
2019-03-25T17:58:32.456Z,4.90
2019-03-25T18:00:54.500Z,4.90
2019-03-25T18:03:10.555Z,5.00
2019-03-25T18:05:08.436Z,5.00
2019-03-25T18:07:14.042Z,4.90
2019-03-25T18:09:19.562Z,4.80
2019-03-25T18:11:25.144Z,4.90
2019-03-25T18:13:30.705Z,4.90
2019-03-25T18:15:36.229Z,4.90
2019-03-25T18:17:41.747Z,4.80
2019-03-25T18:19:48.343Z,4.80
2019-03-25T18:21:53.860Z,4.70
2019-03-25T18:23:59.444Z,4.60
2019-03-25T18:26:06.017Z,4.60
2019-03-25T18:28:11.548Z,4.60
2019-03-25T18:30:18.767Z,4.60
2019-03-25T18:32:24.293Z,4.60
2019-03-25T18:34:29.828Z,4.50
2019-03-25T18:36:35.337Z,4.60
2019-03-25T18:38:40.874Z,4.60
2019-03-25T18:40:46.393Z,4.40
2019-03-25T18:42:51.908Z,4.40
2019-03-25T18:44:57.438Z,4.40
2019-03-25T18:47:02.952Z,4.50
2019-03-25T18:49:08.458Z,4.40
2019-03-25T18:51:14.140Z,4.20
2019-03-25T18:53:19.668Z,4.40
2019-03-25T18:55:25.181Z,4.20
2019-03-25T18:57:30.751Z,4.10
2019-03-25T18:59:36.270Z,4.10
2019-03-25T19:01:41.928Z,4.00
2019-03-25T19:03:47.458Z,4.00
2019-03-25T19:05:53.050Z,4.00
2019-03-25T19:08:00.992Z,4.00
2019-03-25T19:10:09.638Z,3.90
2019-03-25T19:12:15.208Z,4.00
2019-03-25T19:14:20.722Z,3.90
2019-03-25T19:16:26.248Z,3.80
2019-03-25T19:18:31.775Z,3.70
2019-03-25T19:20:37.293Z,3.80
2019-03-25T19:22:42.869Z,3.80
2019-03-25T19:24:48.342Z,3.80
2019-03-25T19:26:53.851Z,3.70
2019-03-25T19:28:59.717Z,3.70
2019-03-25T19:31:05.318Z,3.70
2019-03-25T19:33:10.888Z,3.70
2019-03-25T19:35:16.511Z,3.80
2019-03-25T19:37:22.066Z,3.90
2019-03-25T19:39:27.576Z,3.80
2019-03-25T19:41:33.351Z,3.70
2019-03-25T19:43:38.877Z,3.60
2019-03-25T19:45:44.544Z,3.60
2019-03-25T19:47:50.102Z,3.70
2019-03-25T19:49:55.640Z,3.70
2019-03-25T19:52:01.150Z,3.60
2019-03-25T19:54:06.719Z,3.70
2019-03-25T19:56:12.205Z,3.60
2019-03-25T19:58:17.700Z,3.60
2019-03-25T20:00:35.382Z,3.60
2019-03-25T20:02:40.896Z,3.50
2019-03-25T20:04:46.472Z,3.50
2019-03-25T20:06:52.103Z,3.40
2019-03-25T20:08:57.669Z,3.40
2019-03-25T20:11:03.284Z,3.40
2019-03-25T20:13:08.818Z,3.40
2019-03-25T20:15:16.176Z,3.40
2019-03-25T20:17:21.902Z,3.40
2019-03-25T20:19:27.439Z,3.40
2019-03-25T20:21:32.935Z,3.50
2019-03-25T20:23:38.454Z,3.50
2019-03-25T20:25:44.131Z,3.50
2019-03-25T20:27:49.627Z,3.60
2019-03-25T20:29:55.182Z,3.60
2019-03-25T20:32:00.636Z,3.70
2019-03-25T20:34:11.326Z,3.60
2019-03-25T20:36:13.369Z,3.70
2019-03-25T20:38:18.884Z,3.60
2019-03-25T20:40:24.428Z,3.50
2019-03-25T20:42:29.931Z,3.50
2019-03-25T20:44:35.443Z,3.50
2019-03-25T20:46:40.988Z,3.40
2019-03-25T20:48:46.564Z,3.40
2019-03-25T20:50:52.025Z,3.30
2019-03-25T20:52:57.575Z,3.30
2019-03-25T20:55:03.162Z,3.30
2019-03-25T20:57:08.809Z,3.30
2019-03-25T20:59:14.403Z,3.30
2019-03-25T21:01:19.989Z,3.40
2019-03-25T21:03:25.448Z,3.30
2019-03-25T21:05:34.013Z,3.30
2019-03-25T21:07:39.713Z,3.30
2019-03-25T21:09:45.341Z,3.30
2019-03-25T21:11:50.811Z,3.30
2019-03-25T21:13:56.457Z,3.30
2019-03-25T21:16:01.945Z,3.30
2019-03-25T21:18:07.507Z,3.20
2019-03-25T21:20:13.196Z,3.20
2019-03-25T21:22:18.640Z,3.20
2019-03-25T21:24:24.224Z,3.20
2019-03-25T21:26:29.728Z,3.20
2019-03-25T21:28:38.107Z,3.20
2019-03-25T21:30:48.293Z,3.20
2019-03-25T21:32:58.139Z,3.20
2019-03-25T21:34:57.920Z,3.10
2019-03-25T21:37:05.670Z,3.20
2019-03-25T21:39:10.626Z,3.10
2019-03-25T21:41:16.185Z,3.10
2019-03-25T21:43:21.702Z,3.10
2019-03-25T21:45:27.252Z,3.10
2019-03-25T21:47:32.819Z,3.10
2019-03-25T21:49:43.070Z,3.10
2019-03-25T21:51:48.620Z,3.10
2019-03-25T21:53:54.162Z,3.00
2019-03-25T21:56:00.790Z,3.00
2019-03-25T21:58:06.321Z,3.00
2019-03-25T22:00:12.655Z,3.00
2019-03-25T22:02:18.328Z,3.10
2019-03-25T22:04:23.913Z,3.10
2019-03-25T22:06:29.427Z,3.10
2019-03-25T22:08:34.937Z,3.20
2019-03-25T22:10:42.834Z,3.20
2019-03-25T22:12:47.683Z,3.20
2019-03-25T22:14:53.203Z,3.20
2019-03-25T22:16:58.743Z,3.20
2019-03-25T22:19:04.314Z,3.10
2019-03-25T22:21:09.896Z,3.10
2019-03-25T22:23:15.404Z,3.10
2019-03-25T22:25:20.939Z,3.10
2019-03-25T22:27:26.433Z,3.10
2019-03-25T22:29:31.949Z,3.10
2019-03-25T22:31:37.472Z,3.00
2019-03-25T22:33:44.053Z,3.00
2019-03-25T22:35:49.569Z,3.00
2019-03-25T22:37:55.108Z,3.00
2019-03-25T22:40:00.615Z,3.00
2019-03-25T22:42:06.124Z,3.00
2019-03-25T22:44:11.643Z,3.00
2019-03-25T22:46:17.161Z,3.00
2019-03-25T22:48:22.672Z,3.00
2019-03-25T22:50:29.832Z,3.00
2019-03-25T22:52:35.337Z,3.00
2019-03-25T22:54:40.856Z,3.00
2019-03-25T22:56:46.391Z,3.00
2019-03-25T22:58:51.896Z,3.10
2019-03-25T23:00:59.577Z,3.20
2019-03-25T23:03:05.471Z,3.20
2019-03-25T23:05:12.885Z,3.30
2019-03-25T23:07:21.471Z,3.30
2019-03-25T23:09:27.264Z,3.30
2019-03-25T23:11:35.292Z,3.40
2019-03-25T23:13:41.132Z,3.40
2019-03-25T23:15:50.047Z,3.40
2019-03-25T23:17:55.827Z,3.50
2019-03-25T23:20:03.069Z,3.50
2019-03-25T23:22:08.907Z,3.50
2019-03-25T23:24:17.560Z,3.50
2019-03-25T23:26:23.347Z,3.60
2019-03-25T23:28:30.654Z,3.70
2019-03-25T23:30:36.557Z,3.80
2019-03-25T23:32:43.910Z,3.80
2019-03-25T23:34:49.689Z,3.80
2019-03-25T23:36:55.204Z,3.90
2019-03-25T23:39:00.724Z,3.90
2019-03-25T23:41:07.883Z,4.00
2019-03-25T23:43:13.393Z,4.20
2019-03-25T23:45:18.975Z,4.10
2019-03-25T23:47:24.530Z,4.10
2019-03-25T23:49:30.045Z,4.10
2019-03-25T23:51:35.577Z,4.00
2019-03-25T23:53:41.103Z,4.20
2019-03-25T23:55:46.625Z,4.10
2019-03-25T23:57:52.243Z,4.10
2019-03-25T23:59:57.764Z,4.10
